Time;durP1;ratioP1;P1;durP2;ratioP2;P2;SDS_P1;SDS_P2;PMS_P1;PMS_P2;Temp;Humidity;BMP_temperature;BMP_pressure;BME280_temperature;BME280_humidity;BME280_pressure;Samples;Min_cycle;Max_cycle;Signal;HPM_P1;HPM_P2
2022/07/13 00:02:08;;;;;;;4.95;3.33;;;21.70;99.90;;;;;;5066800;28;20036;-68
2022/07/13 00:04:36;;;;;;;5.75;3.50;;;21.70;99.90;;;;;;5067436;28;20744;-68
2022/07/13 00:07:01;;;;;;;6.47;3.75;;;21.70;99.90;;;;;;5063234;28;20511;-69
2022/07/13 00:09:27;;;;;;;5.50;3.60;;;21.60;99.90;;;;;;5047091;28;20131;-68
2022/07/13 00:11:53;;;;;;;5.82;3.60;;;21.70;99.90;;;;;;5049746;28;20162;-71
2022/07/13 00:14:18;;;;;;;4.60;3.20;;;21.60;99.90;;;;;;5049702;28;20067;-68
2022/07/13 00:16:45;;;;;;;9.05;4.20;;;21.60;99.90;;;;;;5050641;28;20037;-69
2022/07/13 00:19:11;;;;;;;6.10;3.90;;;21.60;99.90;;;;;;5034014;28;20397;-68
2022/07/13 00:21:37;;;;;;;7.25;3.55;;;21.90;99.90;;;;;;5047871;28;20045;-68
2022/07/13 00:24:02;;;;;;;4.80;3.63;;;21.60;99.90;;;;;;5068938;28;20041;-68
2022/07/13 00:26:28;;;;;;;6.88;3.42;;;21.60;99.90;;;;;;5069758;28;20046;-68
2022/07/13 00:28:54;;;;;;;5.60;3.88;;;21.60;99.90;;;;;;5070072;28;20045;-68
2022/07/13 00:31:19;;;;;;;6.13;3.78;;;21.60;99.90;;;;;;5034961;28;20448;-68
2022/07/13 00:33:45;;;;;;;5.78;3.63;;;21.60;99.90;;;;;;5070696;28;20048;-68
2022/07/13 00:36:11;;;;;;;4.20;3.33;;;21.60;99.90;;;;;;5052014;28;20048;-68
2022/07/13 00:38:36;;;;;;;4.90;3.80;;;21.60;99.90;;;;;;5069452;28;20093;-71
2022/07/13 00:41:05;;;;;;;4.30;3.50;;;21.60;99.90;;;;;;5069787;28;20496;-71
2022/07/13 00:43:30;;;;;;;7.20;3.55;;;21.60;99.90;;;;;;5069038;28;20052;-68
2022/07/13 00:45:56;;;;;;;4.90;3.60;;;21.60;99.90;;;;;;5069632;28;20032;-68
2022/07/13 00:48:22;;;;;;;4.88;3.53;;;21.50;99.90;;;;;;5070313;28;20131;-69
2022/07/13 00:50:49;;;;;;;5.95;3.65;;;21.50;99.90;;;;;;5052746;28;20554;-68
2022/07/13 00:53:16;;;;;;;7.38;3.53;;;21.50;99.90;;;;;;5051908;28;20056;-68
2022/07/13 00:55:44;;;;;;;7.53;3.45;;;21.50;99.90;;;;;;5068184;28;20505;-68
2022/07/13 00:58:10;;;;;;;5.47;4.05;;;21.50;99.90;;;;;;5050836;28;20493;-68
2022/07/13 01:00:39;;;;;;;5.38;3.80;;;21.50;99.90;;;;;;5048829;28;20120;-71
2022/07/13 01:03:04;;;;;;;8.45;4.10;;;21.50;99.90;;;;;;5031167;28;20493;-71
2022/07/13 01:05:30;;;;;;;5.93;4.10;;;21.50;99.90;;;;;;5031912;28;20130;-68
2022/07/13 01:07:56;;;;;;;6.30;4.40;;;21.50;99.90;;;;;;5031250;28;20045;-68
2022/07/13 01:10:22;;;;;;;8.02;3.97;;;21.50;99.90;;;;;;5048358;28;20052;-68
2022/07/13 01:12:48;;;;;;;7.25;4.18;;;21.50;99.90;;;;;;5049138;28;20061;-68
2022/07/13 01:15:15;;;;;;;10.75;4.55;;;21.50;99.90;;;;;;5049747;28;20041;-68
2022/07/13 01:17:41;;;;;;;6.65;4.40;;;21.40;99.90;;;;;;5050049;28;20044;-68
2022/07/13 01:20:08;;;;;;;4.88;4.35;;;21.40;99.90;;;;;;5049739;28;20481;-68
2022/07/13 01:22:40;;;;;;;5.50;4.07;;;21.40;99.90;;;;;;5048263;28;20128;-68
2022/07/13 01:25:07;;;;;;;6.82;4.50;;;21.40;99.90;;;;;;5030882;28;20065;-68
2022/07/13 01:27:35;;;;;;;7.82;4.45;;;21.40;99.90;;;;;;5048859;28;20095;-69
2022/07/13 01:30:03;;;;;;;6.30;4.55;;;21.30;99.90;;;;;;5048893;28;20128;-68
2022/07/13 01:32:29;;;;;;;5.50;4.47;;;21.30;99.90;;;;;;5030536;28;20049;-68
2022/07/13 01:34:54;;;;;;;7.22;4.65;;;21.30;99.90;;;;;;5048883;28;20044;-68
2022/07/13 01:37:20;;;;;;;6.75;4.95;;;21.20;99.90;;;;;;5048882;28;20089;-69
2022/07/13 01:39:46;;;;;;;7.03;4.97;;;21.30;99.90;;;;;;5048253;28;20087;-68
2022/07/13 01:42:11;;;;;;;7.57;5.10;;;21.20;99.90;;;;;;5048763;28;20040;-69
2022/07/13 01:44:37;;;;;;;6.43;5.45;;;21.30;99.90;;;;;;5048478;28;20119;-68
2022/07/13 01:47:09;;;;;;;8.10;5.78;;;21.30;99.90;;;;;;5052372;28;20046;-68
2022/07/13 01:49:35;;;;;;;7.03;5.72;;;21.30;99.90;;;;;;5048918;28;20381;-69
2022/07/13 01:52:01;;;;;;;8.32;5.80;;;21.30;99.90;;;;;;5030365;28;20052;-68
2022/07/13 01:54:26;;;;;;;7.13;5.63;;;21.30;99.90;;;;;;5048420;28;20044;-68
2022/07/13 01:56:52;;;;;;;7.22;5.60;;;21.30;99.90;;;;;;5046772;28;20045;-68
2022/07/13 01:59:18;;;;;;;10.23;6.07;;;21.30;99.90;;;;;;5047980;28;20434;-68
2022/07/13 02:01:44;;;;;;;7.15;5.45;;;21.30;99.90;;;;;;5030390;28;20052;-69
2022/07/13 02:04:10;;;;;;;8.15;5.90;;;21.30;99.90;;;;;;5048332;28;20063;-68
2022/07/13 02:06:36;;;;;;;10.05;5.80;;;21.40;99.90;;;;;;5030473;28;20056;-68
2022/07/13 02:09:02;;;;;;;10.00;5.68;;;21.20;99.90;;;;;;5047614;28;20051;-69
2022/07/13 02:11:28;;;;;;;7.60;6.28;;;21.30;99.90;;;;;;5047670;28;20136;-68
2022/07/13 02:13:53;;;;;;;9.18;5.95;;;21.30;99.90;;;;;;5029781;28;20049;-68
2022/07/13 02:16:19;;;;;;;8.73;6.00;;;21.30;99.90;;;;;;5047960;28;20615;-68
2022/07/13 02:18:45;;;;;;;7.10;6.22;;;21.30;99.90;;;;;;5048854;28;20056;-68
2022/07/13 02:21:12;;;;;;;9.88;6.25;;;21.30;99.90;;;;;;5047133;28;20033;-68
2022/07/13 02:23:38;;;;;;;8.20;6.13;;;21.30;99.90;;;;;;5049914;28;20053;-68
2022/07/13 02:26:03;;;;;;;7.72;5.90;;;21.30;99.90;;;;;;5049993;28;20051;-68
2022/07/13 02:28:29;;;;;;;9.40;6.13;;;21.30;99.90;;;;;;5046927;28;20052;-68
2022/07/13 02:30:55;;;;;;;6.93;6.15;;;21.30;99.90;;;;;;5047763;28;20474;-69
2022/07/13 02:33:20;;;;;;;7.63;6.13;;;21.30;99.90;;;;;;5048071;28;20048;-69
2022/07/13 02:35:46;;;;;;;7.50;6.00;;;21.30;99.90;;;;;;5050725;28;20482;-68
2022/07/13 02:38:11;;;;;;;8.95;5.97;;;21.30;99.90;;;;;;5068369;28;20084;-68
2022/07/13 02:40:37;;;;;;;6.80;5.68;;;21.20;99.90;;;;;;5067490;28;20113;-68
2022/07/13 02:43:03;;;;;;;6.50;5.60;;;21.30;99.90;;;;;;5067177;28;20044;-69
2022/07/13 02:45:29;;;;;;;7.85;6.60;;;21.20;99.90;;;;;;5067535;28;20052;-69
2022/07/13 02:47:54;;;;;;;7.35;5.95;;;21.20;99.90;;;;;;5069108;28;20033;-68
2022/07/13 02:50:20;;;;;;;8.55;6.22;;;21.10;99.90;;;;;;5068351;28;20094;-68
2022/07/13 02:52:46;;;;;;;8.88;6.40;;;21.20;99.90;;;;;;5067262;28;20044;-69
2022/07/13 02:55:11;;;;;;;8.65;6.43;;;21.20;99.90;;;;;;5067403;28;20036;-68
2022/07/13 02:57:38;;;;;;;9.88;6.75;;;21.20;99.90;;;;;;5067321;28;20136;-68
2022/07/13 03:00:07;;;;;;;11.05;6.10;;;21.10;99.90;;;;;;5067106;28;20555;-68
2022/07/13 03:02:32;;;;;;;9.13;5.97;;;21.20;99.90;;;;;;5067409;28;20043;-68
2022/07/13 03:04:58;;;;;;;8.00;6.25;;;21.10;99.90;;;;;;5051339;28;20393;-68
2022/07/13 03:07:23;;;;;;;7.28;5.63;;;21.10;99.90;;;;;;5067976;28;20036;-68
2022/07/13 03:09:49;;;;;;;7.03;6.00;;;21.10;99.90;;;;;;5066746;28;20129;-69
2022/07/13 03:12:15;;;;;;;8.55;6.18;;;21.10;99.90;;;;;;5067344;28;20102;-68
2022/07/13 03:14:40;;;;;;;8.02;5.75;;;21.10;99.90;;;;;;5066937;28;20044;-68
2022/07/13 03:17:06;;;;;;;8.35;6.28;;;21.10;99.90;;;;;;5067036;28;20048;-68
2022/07/13 03:19:32;;;;;;;8.00;5.70;;;21.10;99.90;;;;;;5067663;28;20036;-68
2022/07/13 03:21:58;;;;;;;7.45;6.05;;;21.00;99.90;;;;;;5066861;28;20057;-68
2022/07/13 03:24:23;;;;;;;8.75;6.10;;;21.10;99.90;;;;;;5048675;28;20096;-68
2022/07/13 03:26:49;;;;;;;7.80;6.10;;;21.00;99.90;;;;;;5067781;28;20056;-68
2022/07/13 03:29:14;;;;;;;9.18;5.78;;;21.00;99.90;;;;;;5067268;28;20067;-69
2022/07/13 03:31:40;;;;;;;7.00;6.15;;;21.00;99.90;;;;;;5066710;28;20071;-68
2022/07/13 03:34:06;;;;;;;7.63;6.15;;;21.00;99.90;;;;;;5067705;28;20418;-68
2022/07/13 03:36:31;;;;;;;7.50;6.22;;;21.00;99.90;;;;;;5067944;28;20388;-68
2022/07/13 03:38:57;;;;;;;10.80;6.03;;;21.00;99.90;;;;;;5066721;28;20590;-68
2022/07/13 03:41:22;;;;;;;6.97;6.10;;;21.30;99.90;;;;;;5068834;28;20485;-68
2022/07/13 03:43:48;;;;;;;7.53;6.38;;;21.00;99.90;;;;;;5067375;28;20388;-68
2022/07/13 03:46:14;;;;;;;10.57;6.05;;;21.00;99.90;;;;;;5030383;28;20049;-68
2022/07/13 03:48:39;;;;;;;7.15;6.03;;;20.90;99.90;;;;;;5052109;28;20040;-68
2022/07/13 03:51:05;;;;;;;10.73;6.05;;;21.00;99.90;;;;;;5052498;28;20051;-69
2022/07/13 03:53:31;;;;;;;7.47;5.70;;;21.00;99.90;;;;;;5049987;28;20055;-69
2022/07/13 03:55:56;;;;;;;6.60;5.63;;;20.90;99.90;;;;;;5051014;28;20136;-70
2022/07/13 03:58:22;;;;;;;8.32;5.50;;;21.00;99.90;;;;;;5051939;28;20090;-69
2022/07/13 04:00:47;;;;;;;9.75;5.93;;;20.90;99.90;;;;;;5069824;28;20044;-69
2022/07/13 04:03:13;;;;;;;9.65;5.88;;;21.00;99.90;;;;;;5071109;28;20052;-69
2022/07/13 04:05:38;;;;;;;8.07;5.90;;;21.00;99.90;;;;;;5069956;28;20117;-69
2022/07/13 04:08:04;;;;;;;7.55;5.35;;;21.00;99.90;;;;;;5072271;28;20186;-69
2022/07/13 04:10:30;;;;;;;6.22;5.20;;;20.90;99.90;;;;;;5072713;28;20071;-69
2022/07/13 04:12:57;;;;;;;10.30;5.65;;;21.00;99.90;;;;;;5071939;28;20063;-69
2022/07/13 04:15:22;;;;;;;6.93;5.22;;;21.10;99.90;;;;;;5070168;28;20037;-69
2022/07/13 04:17:48;;;;;;;8.93;5.43;;;21.00;99.90;;;;;;5036407;28;20101;-69
2022/07/13 04:20:13;;;;;;;6.95;5.60;;;21.10;99.90;;;;;;5070169;28;20182;-69
2022/07/13 04:22:39;;;;;;;6.63;5.10;;;21.00;99.90;;;;;;5052455;28;20139;-70
2022/07/13 04:25:05;;;;;;;8.38;5.45;;;21.10;99.90;;;;;;5070377;28;20400;-69
2022/07/13 04:27:31;;;;;;;7.88;5.30;;;21.10;99.90;;;;;;5052995;28;20052;-69
2022/07/13 04:29:57;;;;;;;8.40;4.97;;;21.10;99.90;;;;;;5051736;28;20082;-69
2022/07/13 04:32:23;;;;;;;6.30;5.15;;;21.10;99.90;;;;;;5052404;28;20076;-69
2022/07/13 04:34:49;;;;;;;8.38;5.50;;;21.10;99.90;;;;;;5070087;28;20114;-69
2022/07/13 04:37:14;;;;;;;7.80;5.57;;;21.10;99.90;;;;;;5071369;28;20048;-69
2022/07/13 04:39:40;;;;;;;6.22;5.00;;;21.10;99.90;;;;;;5052880;28;20100;-69
2022/07/13 04:42:06;;;;;;;8.00;5.07;;;21.10;99.90;;;;;;5068805;28;20103;-69
2022/07/13 04:44:32;;;;;;;5.88;5.00;;;21.10;99.90;;;;;;5069450;28;20037;-69
2022/07/13 04:46:57;;;;;;;6.13;5.45;;;21.10;99.90;;;;;;5069890;28;20492;-70
2022/07/13 04:49:23;;;;;;;6.40;5.32;;;21.10;99.90;;;;;;5050828;28;20048;-70
2022/07/13 04:51:50;;;;;;;6.75;5.85;;;21.20;99.90;;;;;;5070523;28;20362;-69
2022/07/13 04:54:19;;;;;;;7.95;5.68;;;21.10;99.90;;;;;;5069258;28;20048;-69
2022/07/13 04:56:45;;;;;;;7.43;5.50;;;21.20;99.90;;;;;;5068472;28;20044;-69
2022/07/13 04:59:12;;;;;;;6.82;5.70;;;21.20;99.90;;;;;;5068941;28;20315;-69
2022/07/13 05:01:38;;;;;;;7.15;5.15;;;21.30;99.90;;;;;;5069265;28;20049;-69
2022/07/13 05:04:04;;;;;;;6.68;5.63;;;21.30;99.90;;;;;;5051427;28;20052;-69
2022/07/13 05:06:30;;;;;;;6.20;5.20;;;21.30;99.90;;;;;;5052316;28;20059;-68
2022/07/13 05:08:57;;;;;;;8.35;5.55;;;21.30;99.90;;;;;;5069848;28;20049;-69
2022/07/13 05:11:22;;;;;;;6.72;5.47;;;21.30;99.90;;;;;;5068657;28;20057;-69
2022/07/13 05:13:48;;;;;;;6.47;5.60;;;21.30;99.90;;;;;;5053335;28;20103;-69
2022/07/13 05:16:14;;;;;;;10.50;5.60;;;21.30;99.90;;;;;;5052976;28;20045;-69
2022/07/13 05:18:40;;;;;;;8.25;5.53;;;21.20;99.90;;;;;;5069027;28;20048;-69
2022/07/13 05:21:05;;;;;;;8.65;6.07;;;21.30;99.90;;;;;;5069332;28;20057;-69
2022/07/13 05:23:31;;;;;;;9.30;6.25;;;21.30;99.90;;;;;;5067997;28;20036;-69
2022/07/13 05:25:57;;;;;;;7.30;5.55;;;21.20;99.90;;;;;;5069026;28;20392;-69
2022/07/13 05:28:23;;;;;;;9.95;6.05;;;21.30;99.90;;;;;;5069039;28;20044;-69
2022/07/13 05:30:49;;;;;;;8.18;5.78;;;21.30;99.90;;;;;;5067722;28;20047;-69
2022/07/13 05:33:16;;;;;;;9.52;5.78;;;21.30;99.90;;;;;;5051319;28;20132;-69
2022/07/13 05:35:42;;;;;;;9.98;6.50;;;21.30;99.90;;;;;;5068382;28;20500;-69
2022/07/13 05:38:11;;;;;;;9.75;7.07;;;21.30;99.90;;;;;;5067612;28;20060;-69
2022/07/13 05:40:37;;;;;;;10.10;6.78;;;21.30;99.90;;;;;;5069518;28;20045;-69
2022/07/13 05:43:03;;;;;;;8.20;6.70;;;21.30;99.90;;;;;;5069073;28;20040;-69
2022/07/13 05:45:29;;;;;;;7.80;6.93;;;21.40;99.90;;;;;;5067834;28;20075;-69
2022/07/13 05:47:54;;;;;;;8.63;7.07;;;21.40;99.90;;;;;;5068715;28;20040;-69
2022/07/13 05:50:20;;;;;;;9.32;7.10;;;21.40;99.90;;;;;;5068981;28;20036;-69
2022/07/13 05:52:45;;;;;;;9.80;6.95;;;21.40;99.90;;;;;;5050869;28;20389;-69
2022/07/13 05:55:11;;;;;;;9.32;7.72;;;21.50;99.90;;;;;;5070980;28;20469;-69
2022/07/13 05:57:38;;;;;;;10.80;7.63;;;21.50;99.90;;;;;;5070611;28;20111;-69
2022/07/13 06:00:07;;;;;;;9.93;7.60;;;21.40;99.90;;;;;;5049380;28;20500;-70
2022/07/13 06:02:32;;;;;;;8.82;7.15;;;21.50;99.90;;;;;;5068375;28;20058;-69
2022/07/13 06:04:58;;;;;;;9.13;7.60;;;21.50;99.90;;;;;;5068049;28;20162;-69
2022/07/13 06:07:24;;;;;;;11.88;8.05;;;21.50;99.90;;;;;;5067143;28;20033;-69
2022/07/13 06:09:50;;;;;;;10.23;8.25;;;21.50;99.90;;;;;;5068083;28;20448;-69
2022/07/13 06:12:15;;;;;;;12.00;8.23;;;21.50;99.90;;;;;;5066794;28;20139;-70
2022/07/13 06:14:41;;;;;;;12.55;8.68;;;21.50;99.90;;;;;;5049698;28;20048;-70
2022/07/13 06:17:07;;;;;;;11.52;8.90;;;21.50;99.90;;;;;;5068235;28;20090;-70
2022/07/13 06:19:35;;;;;;;12.75;8.10;;;21.50;99.90;;;;;;5067646;28;20104;-69
2022/07/13 06:22:01;;;;;;;11.52;9.23;;;21.50;99.90;;;;;;5049578;28;20076;-70
2022/07/13 06:24:26;;;;;;;14.63;8.68;;;21.60;99.90;;;;;;5067519;28;20480;-70
2022/07/13 06:26:52;;;;;;;15.75;8.40;;;21.60;99.90;;;;;;5067655;28;20556;-69
2022/07/13 06:29:18;;;;;;;13.70;8.90;;;21.60;99.90;;;;;;5067463;28;20048;-70
2022/07/13 06:31:43;;;;;;;14.65;8.85;;;21.70;99.90;;;;;;5067509;28;20090;-69
2022/07/13 06:34:09;;;;;;;14.30;9.35;;;21.80;99.90;;;;;;5067568;28;20079;-69
2022/07/13 06:36:34;;;;;;;12.23;8.95;;;21.80;99.90;;;;;;5049651;28;20060;-69
2022/07/13 06:39:01;;;;;;;11.02;8.88;;;21.90;99.90;;;;;;5049409;28;20063;-69
2022/07/13 06:41:26;;;;;;;14.02;9.32;;;22.00;99.90;;;;;;5048407;28;20128;-69
2022/07/13 06:43:52;;;;;;;13.27;9.18;;;22.00;99.90;;;;;;5068166;28;20119;-69
2022/07/13 06:46:18;;;;;;;13.18;9.43;;;22.10;99.90;;;;;;5067417;28;20433;-70
2022/07/13 06:48:44;;;;;;;11.80;8.90;;;22.10;99.90;;;;;;5066000;28;20043;-70
2022/07/13 06:51:09;;;;;;;12.63;9.52;;;22.20;99.90;;;;;;5067801;28;20036;-70
2022/07/13 06:53:35;;;;;;;12.15;9.18;;;22.20;99.90;;;;;;5067114;28;20056;-69
2022/07/13 06:56:01;;;;;;;12.15;9.00;;;22.30;99.90;;;;;;5066835;28;20532;-69
2022/07/13 06:58:26;;;;;;;14.63;9.00;;;22.20;99.90;;;;;;5050453;28;20091;-69
2022/07/13 07:00:52;;;;;;;11.50;8.60;;;22.30;99.90;;;;;;5051695;28;20124;-68
2022/07/13 07:03:18;;;;;;;15.65;10.00;;;22.30;99.90;;;;;;5048562;28;20084;-69
2022/07/13 07:05:44;;;;;;;14.15;9.40;;;22.30;99.90;;;;;;5067136;28;20506;-69
2022/07/13 07:08:10;;;;;;;11.38;9.27;;;22.30;99.90;;;;;;5067030;28;20488;-69
2022/07/13 07:10:37;;;;;;;12.00;8.85;;;22.30;99.90;;;;;;5067067;28;20057;-69
2022/07/13 07:13:02;;;;;;;12.23;8.63;;;22.30;99.90;;;;;;5069348;28;20481;-69
2022/07/13 07:15:28;;;;;;;15.20;8.32;;;22.30;99.90;;;;;;5066738;28;20083;-69
2022/07/13 07:17:54;;;;;;;16.08;9.15;;;22.30;99.90;;;;;;5048984;28;20041;-69
2022/07/13 07:20:19;;;;;;;13.65;8.23;;;22.30;99.90;;;;;;5068136;28;20140;-69
2022/07/13 07:22:46;;;;;;;11.25;8.25;;;22.40;99.90;;;;;;5070460;28;20508;-69
2022/07/13 07:25:13;;;;;;;11.32;8.07;;;22.40;99.90;;;;;;5071896;28;20121;-69
2022/07/13 07:27:40;;;;;;;11.85;7.85;;;22.50;99.90;;;;;;5073182;28;20049;-69
2022/07/13 07:30:06;;;;;;;13.40;8.40;;;22.50;99.90;;;;;;5052837;28;20041;-69
2022/07/13 07:32:33;;;;;;;13.32;8.23;;;22.60;99.90;;;;;;5070888;28;20048;-69
2022/07/13 07:34:59;;;;;;;11.05;8.02;;;22.60;99.90;;;;;;5070394;28;20036;-69
2022/07/13 07:37:24;;;;;;;15.07;7.93;;;22.70;99.90;;;;;;5070106;28;20036;-69
2022/07/13 07:39:51;;;;;;;14.15;8.68;;;22.70;99.90;;;;;;5072640;28;20047;-69
2022/07/13 07:42:17;;;;;;;12.95;8.57;;;22.80;99.90;;;;;;5053169;28;20527;-69
2022/07/13 07:44:43;;;;;;;17.88;9.10;;;23.10;99.90;;;;;;5069925;28;20052;-69
2022/07/13 07:47:09;;;;;;;15.55;9.02;;;22.80;99.90;;;;;;5070857;28;20456;-69
2022/07/13 07:49:35;;;;;;;12.20;8.05;;;22.80;99.90;;;;;;5070614;28;20080;-70
2022/07/13 07:52:00;;;;;;;16.02;9.20;;;22.80;99.90;;;;;;5070233;28;20047;-69
2022/07/13 07:54:26;;;;;;;14.73;9.80;;;22.90;99.90;;;;;;5070050;28;20032;-69
2022/07/13 07:56:52;;;;;;;15.20;8.60;;;23.00;99.90;;;;;;5070688;28;20036;-69
2022/07/13 07:59:17;;;;;;;13.98;8.18;;;23.00;99.90;;;;;;5069654;28;20389;-69
2022/07/13 08:01:44;;;;;;;12.50;8.15;;;23.00;99.90;;;;;;5070063;28;20182;-70
2022/07/13 08:04:10;;;;;;;13.50;8.45;;;23.10;99.90;;;;;;5070297;28;20493;-69
2022/07/13 08:06:36;;;;;;;11.23;9.07;;;23.10;99.90;;;;;;5069187;28;20045;-69
2022/07/13 08:09:02;;;;;;;13.25;9.45;;;23.20;99.90;;;;;;5070542;28;20136;-70
2022/07/13 08:11:28;;;;;;;13.25;8.73;;;23.30;99.90;;;;;;5051850;28;20125;-70
2022/07/13 08:13:54;;;;;;;12.88;8.27;;;23.30;99.90;;;;;;5070337;28;20048;-70
2022/07/13 08:16:20;;;;;;;11.23;7.20;;;23.30;99.90;;;;;;5070217;28;20097;-70
2022/07/13 08:18:46;;;;;;;14.10;7.53;;;23.70;99.90;;;;;;5069251;28;20124;-70
2022/07/13 08:21:12;;;;;;;13.18;8.50;;;23.50;99.90;;;;;;5071758;28;20045;-71
2022/07/13 08:23:54;;;;;;;13.57;8.55;;;23.60;99.90;;;;;;5034885;28;20400;-70
2022/07/13 08:26:28;;;;;;;11.98;7.85;;;23.60;99.90;;;;;;5068920;28;20401;-71
2022/07/13 08:28:55;;;;;;;21.77;8.10;;;23.60;99.90;;;;;;5069992;28;20523;-70
2022/07/13 08:31:22;;;;;;;10.60;6.20;;;23.70;99.90;;;;;;5069103;28;20040;-71
2022/07/13 08:39:17;;;;;;;13.48;6.85;;;23.80;99.90;;;;;;5069409;28;20439;-70
2022/07/13 08:41:43;;;;;;;11.20;6.50;;;23.90;99.90;;;;;;5068199;28;20048;-71
2022/07/13 08:44:09;;;;;;;10.75;5.88;;;23.90;99.90;;;;;;5071550;28;20074;-71
2022/07/13 08:46:35;;;;;;;10.05;5.90;;;24.00;99.90;;;;;;5068865;28;20060;-71
2022/07/13 08:49:02;;;;;;;13.57;7.13;;;24.10;99.90;;;;;;5069122;28;20041;-71
2022/07/13 08:51:31;;;;;;;10.75;5.00;;;24.20;99.90;;;;;;5069391;28;20082;-70
2022/07/13 08:53:56;;;;;;;8.40;4.88;;;24.30;99.90;;;;;;5068334;28;20040;-71
2022/07/13 08:56:23;;;;;;;7.82;5.15;;;24.30;99.90;;;;;;5067850;28;20055;-71
2022/07/13 08:58:49;;;;;;;9.85;5.50;;;24.40;99.90;;;;;;5068928;28;20497;-70
2022/07/13 09:01:15;;;;;;;11.52;5.70;;;24.40;99.90;;;;;;5068100;28;20071;-70
2022/07/13 09:03:42;;;;;;;8.95;5.43;;;24.40;99.90;;;;;;5050843;28;20346;-71
2022/07/13 09:06:08;;;;;;;9.35;5.03;;;24.50;99.90;;;;;;5069380;28;20048;-70
2022/07/13 09:08:42;;;;;;;8.35;4.30;;;24.70;99.90;;;;;;5049722;28;20151;-70
2022/07/13 09:11:07;;;;;;;9.13;4.10;;;24.70;99.90;;;;;;5068647;28;20136;-70
2022/07/13 09:13:41;;;;;;;7.07;3.88;;;24.80;99.90;;;;;;5050465;28;20132;-70
2022/07/13 09:16:27;;;;;;;6.53;3.58;;;24.90;99.90;;;;;;5068304;28;20054;-70
2022/07/13 09:18:54;;;;;;;6.63;3.58;;;25.00;99.90;;;;;;5069183;28;20388;-70
2022/07/13 09:21:22;;;;;;;12.65;3.30;;;25.10;99.90;;;;;;5068500;28;20052;-70
2022/07/13 09:24:02;;;;;;;6.18;3.80;;;25.20;99.90;;;;;;5050140;28;20052;-70
2022/07/13 09:26:45;;;;;;;6.97;3.88;;;25.40;99.90;;;;;;5034318;28;20125;-70
2022/07/13 09:29:11;;;;;;;11.23;4.38;;;25.50;99.90;;;;;;5068130;28;20044;-70
2022/07/13 09:31:54;;;;;;;6.65;3.70;;;25.60;99.90;;;;;;5067893;28;20048;-70
2022/07/13 09:34:21;;;;;;;7.95;3.60;;;25.70;99.90;;;;;;5050644;28;20493;-70
2022/07/13 09:37:14;;;;;;;5.85;3.85;;;25.70;99.90;;;;;;5050535;28;20538;-70
2022/07/13 09:40:05;;;;;;;6.65;4.10;;;25.80;99.90;;;;;;5050776;28;20059;-70
2022/07/13 09:42:33;;;;;;;8.43;3.95;;;25.90;99.90;;;;;;5068926;28;20049;-70
2022/07/13 09:47:53;;;;;;;4.60;3.50;;;26.30;99.90;;;;;;5069233;28;20052;-70
2022/07/13 09:50:22;;;;;;;6.35;3.90;;;26.50;99.90;;;;;;5070245;28;20132;-70
2022/07/13 09:52:52;;;;;;;7.78;4.30;;;26.80;99.90;;;;;;5070518;28;20048;-70
2022/07/13 09:55:22;;;;;;;7.57;3.58;;;27.10;99.90;;;;;;5067753;28;20052;-70
2022/07/13 09:58:02;;;;;;;5.90;3.88;;;27.30;99.90;;;;;;5067247;28;20100;-71
2022/07/13 10:00:27;;;;;;;6.90;3.78;;;27.50;99.90;;;;;;5067496;28;20126;-70
2022/07/13 10:02:54;;;;;;;7.55;4.30;;;27.80;99.90;;;;;;5068528;28;20120;-70
2022/07/13 10:05:20;;;;;;;8.68;3.80;;;28.40;99.90;;;;;;5049905;28;20477;-70
2022/07/13 10:07:47;;;;;;;4.65;3.00;;;29.50;99.90;;;;;;5068130;28;20040;-70
2022/07/13 10:10:15;;;;;;;5.70;3.10;;;31.00;99.90;;;;;;5065106;28;20493;-71
2022/07/13 10:12:42;;;;;;;4.88;3.47;;;32.80;98.10;;;;;;5066899;28;20425;-70
2022/07/13 10:15:10;;;;;;;5.22;3.47;;;34.60;95.80;;;;;;5049563;28;20089;-70
2022/07/13 10:17:37;;;;;;;6.10;3.70;;;35.60;94.20;;;;;;5066132;28;20036;-70
2022/07/13 10:20:24;;;;;;;6.28;3.25;;;36.70;92.60;;;;;;5067925;28;20049;-70
2022/07/13 10:22:51;;;;;;;5.72;3.03;;;38.50;90.40;;;;;;5067213;28;20045;-71
2022/07/13 10:25:17;;;;;;;6.38;2.70;;;39.90;90.20;;;;;;5047973;28;20044;-71
2022/07/13 10:27:43;;;;;;;5.43;2.70;;;41.30;87.40;;;;;;5067366;28;20921;-72
2022/07/13 10:30:29;;;;;;;6.10;2.60;;;42.00;83.30;;;;;;5067174;28;20048;-71
2022/07/13 10:33:15;;;;;;;3.47;2.00;;;43.40;78.50;;;;;;5049288;28;20442;-72
2022/07/13 10:35:54;;;;;;;3.15;1.85;;;44.50;76.60;;;;;;5068313;28;20199;-71
2022/07/13 10:38:27;;;;;;;4.93;1.67;;;44.20;72.90;;;;;;5066568;28;20044;-70
2022/07/13 10:41:19;;;;;;;3.60;1.90;;;45.00;74.20;;;;;;5067195;28;20436;-70
2022/07/13 10:44:01;;;;;;;3.22;1.70;;;45.60;70.50;;;;;;5066553;28;20492;-70
2022/07/13 10:46:59;;;;;;;4.70;1.70;;;45.70;69.80;;;;;;5066309;28;20036;-70
2022/07/13 10:49:31;;;;;;;3.35;1.67;;;46.40;68.40;;;;;;5022801;28;20071;-70
2022/07/13 10:52:20;;;;;;;6.03;1.77;;;46.40;67.50;;;;;;5031939;28;20436;-71
2022/07/13 10:55:11;;;;;;;3.08;1.80;;;47.10;66.50;;;;;;5067300;28;20048;-70
2022/07/13 10:57:44;;;;;;;4.88;2.08;;;46.50;63.60;;;;;;5067890;28;20489;-71
2022/07/13 11:00:18;;;;;;;4.65;2.10;;;45.80;63.40;;;;;;5066996;28;20119;-71
2022/07/13 11:03:05;;;;;;;2.35;1.70;;;45.00;63.20;;;;;;5067684;28;20048;-71
2022/07/13 11:05:34;;;;;;;3.47;1.80;;;43.80;63.10;;;;;;5067738;28;20052;-71
2022/07/13 11:08:14;;;;;;;6.05;2.20;;;42.10;64.00;;;;;;5066167;28;20037;-71
2022/07/13 11:10:40;;;;;;;3.60;1.90;;;40.40;63.90;;;;;;5065915;28;20080;-71
2022/07/13 11:13:12;;;;;;;5.63;2.20;;;39.30;65.70;;;;;;5050193;28;20174;-71
2022/07/13 11:15:43;;;;;;;3.28;2.00;;;38.40;66.40;;;;;;5065938;28;20064;-71
2022/07/13 11:18:29;;;;;;;3.75;1.95;;;37.20;67.50;;;;;;5066008;28;20141;-70
2022/07/13 11:20:56;;;;;;;4.18;1.70;;;36.30;68.10;;;;;;5032077;28;20134;-70
2022/07/13 11:26:38;;;;;;;5.28;1.98;;;35.30;69.90;;;;;;5067033;28;20044;-70
2022/07/13 11:29:34;;;;;;;7.88;1.90;;;35.20;70.50;;;;;;5066601;28;20048;-70
2022/07/13 11:32:01;;;;;;;3.97;2.17;;;34.70;71.20;;;;;;5069195;28;20090;-71
2022/07/13 11:34:27;;;;;;;5.00;2.10;;;34.30;72.70;;;;;;5066822;28;20044;-70
2022/07/13 11:36:55;;;;;;;4.63;2.42;;;34.00;74.00;;;;;;5067053;28;20052;-70
2022/07/13 11:39:23;;;;;;;5.10;2.08;;;34.00;75.10;;;;;;5067288;28;20464;-70
2022/07/13 11:41:51;;;;;;;3.85;2.25;;;34.10;76.10;;;;;;5066199;28;20076;-70
2022/07/13 11:44:19;;;;;;;3.65;2.00;;;35.30;75.40;;;;;;5048941;28;20455;-70
2022/07/13 11:46:45;;;;;;;6.90;2.10;;;35.00;74.00;;;;;;5048123;28;20049;-73
2022/07/13 11:49:11;;;;;;;8.25;2.30;;;35.40;74.70;;;;;;5066188;28;20345;-70
2022/07/13 11:51:37;;;;;;;4.45;2.17;;;36.50;74.70;;;;;;5066309;28;20049;-70
2022/07/13 11:54:08;;;;;;;6.70;2.20;;;38.60;73.60;;;;;;5066883;28;20036;-70
2022/07/13 11:56:33;;;;;;;5.15;2.05;;;39.40;71.90;;;;;;5065721;28;20059;-71
2022/07/13 11:58:59;;;;;;;4.43;2.22;;;40.30;71.90;;;;;;5067040;28;20040;-70
2022/07/13 12:01:25;;;;;;;4.05;2.03;;;41.10;72.10;;;;;;5068230;28;20048;-71
2022/07/13 12:03:51;;;;;;;4.10;2.20;;;41.50;71.90;;;;;;5068354;28;20144;-71
2022/07/13 12:06:18;;;;;;;4.38;2.00;;;42.50;71.60;;;;;;5067972;28;20498;-71
2022/07/13 12:08:45;;;;;;;3.70;2.00;;;43.40;70.00;;;;;;5052368;28;20048;-72
2022/07/13 12:11:17;;;;;;;6.93;2.00;;;43.40;70.30;;;;;;5051601;28;20048;-71
2022/07/13 12:13:44;;;;;;;4.00;1.85;;;43.80;69.60;;;;;;5069493;28;20067;-69
2022/07/13 12:16:12;;;;;;;5.13;1.80;;;43.40;69.60;;;;;;5051388;28;20045;-72
2022/07/13 12:19:03;;;;;;;6.03;1.90;;;42.50;69.30;;;;;;5073024;28;20041;-72
2022/07/13 12:21:33;;;;;;;5.35;1.85;;;40.30;68.70;;;;;;5053384;28;20040;-71
2022/07/13 12:24:00;;;;;;;6.57;2.08;;;38.50;70.70;;;;;;5069434;28;20086;-71
2022/07/13 12:26:26;;;;;;;6.63;2.10;;;37.40;72.40;;;;;;5069562;28;20147;-71
2022/07/13 12:28:52;;;;;;;4.53;1.90;;;36.00;72.60;;;;;;5070322;28;20048;-71
2022/07/13 12:31:22;;;;;;;4.97;2.20;;;34.90;74.10;;;;;;5068706;28;20072;-71
2022/07/13 12:33:52;;;;;;;5.57;2.13;;;33.60;76.10;;;;;;5052235;28;20099;-71
2022/07/13 12:36:20;;;;;;;7.72;2.25;;;32.80;78.10;;;;;;5069582;28;20052;-71
2022/07/13 12:39:00;;;;;;;7.65;2.42;;;32.20;79.20;;;;;;5069358;28;20052;-70
2022/07/13 12:41:28;;;;;;;6.45;2.55;;;32.00;80.60;;;;;;5069111;28;20056;-71
2022/07/13 12:43:56;;;;;;;6.95;2.42;;;31.40;81.50;;;;;;5071126;28;20428;-71
2022/07/13 12:46:22;;;;;;;6.63;2.40;;;31.20;82.30;;;;;;5050664;28;20041;-71
2022/07/13 12:48:58;;;;;;;8.05;2.40;;;30.90;83.90;;;;;;5069947;28;20091;-71
2022/07/13 12:51:24;;;;;;;8.75;2.22;;;30.60;85.30;;;;;;5034278;28;20044;-71
2022/07/13 12:53:49;;;;;;;6.95;2.40;;;30.30;85.50;;;;;;5051279;28;20048;-71
2022/07/13 12:56:20;;;;;;;6.47;2.40;;;30.10;86.30;;;;;;5070019;28;20346;-72
2022/07/13 12:58:48;;;;;;;8.10;2.50;;;29.70;87.10;;;;;;5071299;28;20059;-70